Terminal Aerodrome Forecast
Issued by NWS

Home | Current Version | Previous Version | Text Only | Print | Product List | Glossary Off
Versions: 1 2 3 4 5 6 7 8 9 10 11 12 13 14 15 16 17 18 19

000
FTUS43 KTOP 250500
TAFFOE
TAF
KFOE 250520Z 2506/2606 30007KT P6SM SKC
     FM251600 22009KT P6SM FEW200
     FM260000 17011KT P6SM OVC060=

USA.gov is the U.S. government's official web portal to all federal, state and local government web resources and services.